sensor_id;sensor_type;location;lat;lon;timestamp;temperature;humidity
666;DHT22;315;48.738;9.126;2023-08-12T00:00:09;20.70;99.90
666;DHT22;315;48.738;9.126;2023-08-12T00:02:42;20.70;99.90
666;DHT22;315;48.738;9.126;2023-08-12T00:05:08;20.70;99.90
666;DHT22;315;48.738;9.126;2023-08-12T00:07:34;20.70;99.90
666;DHT22;315;48.738;9.126;2023-08-12T00:10:03;20.60;99.90
666;DHT22;315;48.738;9.126;2023-08-12T00:12:36;20.50;99.90
666;DHT22;315;48.738;9.126;2023-08-12T00:15:03;20.50;99.90
666;DHT22;315;48.738;9.126;2023-08-12T00:17:30;20.50;99.90
666;DHT22;315;48.738;9.126;2023-08-12T00:19:56;20.50;99.90
666;DHT22;315;48.738;9.126;2023-08-12T00:22:22;20.50;99.90
666;DHT22;315;48.738;9.126;2023-08-12T00:24:47;20.40;99.90
666;DHT22;315;48.738;9.126;2023-08-12T00:27:13;20.50;99.90
666;DHT22;315;48.738;9.126;2023-08-12T00:29:39;20.30;99.90
666;DHT22;315;48.738;9.126;2023-08-12T00:32:04;20.30;99.90
666;DHT22;315;48.738;9.126;2023-08-12T00:34:30;20.30;99.90
666;DHT22;315;48.738;9.126;2023-08-12T00:36:55;20.30;99.90
666;DHT22;315;48.738;9.126;2023-08-12T00:39:21;20.30;99.90
666;DHT22;315;48.738;9.126;2023-08-12T00:41:46;20.30;99.90
666;DHT22;315;48.738;9.126;2023-08-12T00:44:12;20.30;99.90
666;DHT22;315;48.738;9.126;2023-08-12T00:46:41;20.30;99.90
666;DHT22;315;48.738;9.126;2023-08-12T00:49:08;20.20;99.90
666;DHT22;315;48.738;9.126;2023-08-12T00:51:34;20.20;99.90
666;DHT22;315;48.738;9.126;2023-08-12T00:54:02;20.20;99.90
666;DHT22;315;48.738;9.126;2023-08-12T00:56:30;20.10;99.90
666;DHT22;315;48.738;9.126;2023-08-12T00:58:57;20.00;99.90
666;DHT22;315;48.738;9.126;2023-08-12T01:01:23;19.90;99.90
666;DHT22;315;48.738;9.126;2023-08-12T01:03:49;20.00;99.90
666;DHT22;315;48.738;9.126;2023-08-12T01:06:15;20.00;99.90
666;DHT22;315;48.738;9.126;2023-08-12T01:08:41;20.00;99.90
666;DHT22;315;48.738;9.126;2023-08-12T01:11:10;20.00;99.90
666;DHT22;315;48.738;9.126;2023-08-12T01:13:51;20.00;99.90
666;DHT22;315;48.738;9.126;2023-08-12T01:16:21;20.00;99.90
666;DHT22;315;48.738;9.126;2023-08-12T01:18:47;20.00;99.90
666;DHT22;315;48.738;9.126;2023-08-12T01:21:16;20.00;99.90
666;DHT22;315;48.738;9.126;2023-08-12T01:23:42;20.00;99.90
666;DHT22;315;48.738;9.126;2023-08-12T01:26:08;20.00;99.90
666;DHT22;315;48.738;9.126;2023-08-12T01:28:34;20.10;99.90
666;DHT22;315;48.738;9.126;2023-08-12T01:31:12;20.00;99.90
666;DHT22;315;48.738;9.126;2023-08-12T01:33:49;20.00;99.90
666;DHT22;315;48.738;9.126;2023-08-12T01:36:19;20.00;99.90
666;DHT22;315;48.738;9.126;2023-08-12T01:38:46;19.90;99.90
666;DHT22;315;48.738;9.126;2023-08-12T01:41:13;19.90;99.90
666;DHT22;315;48.738;9.126;2023-08-12T01:43:39;19.90;99.90
666;DHT22;315;48.738;9.126;2023-08-12T01:46:06;19.90;99.90
666;DHT22;315;48.738;9.126;2023-08-12T01:48:31;19.90;99.90
666;DHT22;315;48.738;9.126;2023-08-12T01:50:57;19.90;99.90
666;DHT22;315;48.738;9.126;2023-08-12T01:53:22;19.90;99.90
666;DHT22;315;48.738;9.126;2023-08-12T01:55:49;19.90;99.90
666;DHT22;315;48.738;9.126;2023-08-12T01:58:15;19.90;99.90
666;DHT22;315;48.738;9.126;2023-08-12T02:00:41;19.90;99.90
666;DHT22;315;48.738;9.126;2023-08-12T02:03:06;19.90;99.90
666;DHT22;315;48.738;9.126;2023-08-12T02:05:32;19.90;99.90
666;DHT22;315;48.738;9.126;2023-08-12T02:07:58;19.90;99.90
666;DHT22;315;48.738;9.126;2023-08-12T02:10:23;19.90;99.90
666;DHT22;315;48.738;9.126;2023-08-12T02:12:49;20.00;99.90
666;DHT22;315;48.738;9.126;2023-08-12T02:15:14;19.90;99.90
666;DHT22;315;48.738;9.126;2023-08-12T02:17:40;20.00;99.90
666;DHT22;315;48.738;9.126;2023-08-12T02:20:06;20.00;99.90
666;DHT22;315;48.738;9.126;2023-08-12T02:22:32;20.10;99.90
666;DHT22;315;48.738;9.126;2023-08-12T02:24:57;20.20;99.90
666;DHT22;315;48.738;9.126;2023-08-12T02:27:23;20.30;99.90
666;DHT22;315;48.738;9.126;2023-08-12T02:29:49;20.40;99.90
666;DHT22;315;48.738;9.126;2023-08-12T02:32:14;20.40;99.90
666;DHT22;315;48.738;9.126;2023-08-12T02:34:40;20.30;99.90
666;DHT22;315;48.738;9.126;2023-08-12T02:37:05;20.20;99.90
666;DHT22;315;48.738;9.126;2023-08-12T02:39:31;20.20;99.90
666;DHT22;315;48.738;9.126;2023-08-12T02:41:56;20.20;99.90
666;DHT22;315;48.738;9.126;2023-08-12T02:44:22;20.20;99.90
666;DHT22;315;48.738;9.126;2023-08-12T02:46:47;20.10;99.90
666;DHT22;315;48.738;9.126;2023-08-12T02:49:13;20.10;99.90
666;DHT22;315;48.738;9.126;2023-08-12T02:51:38;20.20;99.90
666;DHT22;315;48.738;9.126;2023-08-12T02:54:04;20.20;99.90
666;DHT22;315;48.738;9.126;2023-08-12T02:56:30;20.20;99.90
666;DHT22;315;48.738;9.126;2023-08-12T02:58:55;20.20;99.90
666;DHT22;315;48.738;9.126;2023-08-12T03:01:22;20.20;99.90
666;DHT22;315;48.738;9.126;2023-08-12T03:03:47;20.30;99.90
666;DHT22;315;48.738;9.126;2023-08-12T03:06:13;20.30;99.90
666;DHT22;315;48.738;9.126;2023-08-12T03:08:38;20.30;99.90
666;DHT22;315;48.738;9.126;2023-08-12T03:11:04;20.40;99.90
666;DHT22;315;48.738;9.126;2023-08-12T03:13:30;20.40;99.90
666;DHT22;315;48.738;9.126;2023-08-12T03:15:55;20.30;99.90
666;DHT22;315;48.738;9.126;2023-08-12T03:18:21;20.40;99.90
666;DHT22;315;48.738;9.126;2023-08-12T03:20:46;20.40;99.90
666;DHT22;315;48.738;9.126;2023-08-12T03:23:12;20.40;99.90
666;DHT22;315;48.738;9.126;2023-08-12T03:25:37;20.40;99.90
666;DHT22;315;48.738;9.126;2023-08-12T03:28:03;20.40;99.90
666;DHT22;315;48.738;9.126;2023-08-12T03:30:29;20.40;99.90
666;DHT22;315;48.738;9.126;2023-08-12T03:32:54;20.50;99.90
666;DHT22;315;48.738;9.126;2023-08-12T03:35:20;20.40;99.90
666;DHT22;315;48.738;9.126;2023-08-12T03:37:45;20.40;99.90
666;DHT22;315;48.738;9.126;2023-08-12T03:40:11;20.50;99.90
666;DHT22;315;48.738;9.126;2023-08-12T03:42:36;20.50;99.90
666;DHT22;315;48.738;9.126;2023-08-12T03:45:02;20.50;99.90
666;DHT22;315;48.738;9.126;2023-08-12T03:47:28;20.60;99.90
666;DHT22;315;48.738;9.126;2023-08-12T03:49:53;20.60;99.90
666;DHT22;315;48.738;9.126;2023-08-12T03:52:19;20.60;99.90
666;DHT22;315;48.738;9.126;2023-08-12T03:54:45;20.60;99.90
666;DHT22;315;48.738;9.126;2023-08-12T03:57:11;20.60;99.90
666;DHT22;315;48.738;9.126;2023-08-12T03:59:36;20.60;99.90
666;DHT22;315;48.738;9.126;2023-08-12T04:02:02;20.60;99.90
666;DHT22;315;48.738;9.126;2023-08-12T04:04:29;20.60;99.90
666;DHT22;315;48.738;9.126;2023-08-12T04:06:55;20.60;99.90
666;DHT22;315;48.738;9.126;2023-08-12T04:09:20;20.60;99.90
666;DHT22;315;48.738;9.126;2023-08-12T04:11:46;20.60;99.90
666;DHT22;315;48.738;9.126;2023-08-12T04:14:15;20.60;99.90
666;DHT22;315;48.738;9.126;2023-08-12T04:16:41;20.70;99.90
666;DHT22;315;48.738;9.126;2023-08-12T04:19:06;20.70;99.90
666;DHT22;315;48.738;9.126;2023-08-12T04:21:32;20.70;99.90
666;DHT22;315;48.738;9.126;2023-08-12T04:23:57;20.80;99.90
666;DHT22;315;48.738;9.126;2023-08-12T04:26:23;20.70;99.90
666;DHT22;315;48.738;9.126;2023-08-12T04:28:48;20.70;99.90
666;DHT22;315;48.738;9.126;2023-08-12T04:31:14;20.70;99.90
666;DHT22;315;48.738;9.126;2023-08-12T04:33:39;20.70;99.90
666;DHT22;315;48.738;9.126;2023-08-12T04:36:05;20.70;99.90
666;DHT22;315;48.738;9.126;2023-08-12T04:38:31;20.60;99.90
666;DHT22;315;48.738;9.126;2023-08-12T04:40:57;20.60;99.90
666;DHT22;315;48.738;9.126;2023-08-12T04:43:22;20.60;99.90
666;DHT22;315;48.738;9.126;2023-08-12T04:45:48;20.50;99.90
666;DHT22;315;48.738;9.126;2023-08-12T04:48:14;20.50;99.90
666;DHT22;315;48.738;9.126;2023-08-12T04:50:41;20.60;99.90
666;DHT22;315;48.738;9.126;2023-08-12T04:53:07;20.50;99.90
666;DHT22;315;48.738;9.126;2023-08-12T04:55:36;20.40;99.90
666;DHT22;315;48.738;9.126;2023-08-12T04:58:02;20.20;99.90
666;DHT22;315;48.738;9.126;2023-08-12T05:00:28;20.20;99.90
666;DHT22;315;48.738;9.126;2023-08-12T05:02:53;20.30;99.90
666;DHT22;315;48.738;9.126;2023-08-12T05:05:19;20.10;99.90
666;DHT22;315;48.738;9.126;2023-08-12T05:07:45;20.20;99.90
666;DHT22;315;48.738;9.126;2023-08-12T05:10:17;20.30;99.90
666;DHT22;315;48.738;9.126;2023-08-12T05:12:43;20.40;99.90
666;DHT22;315;48.738;9.126;2023-08-12T05:15:10;20.30;99.90
666;DHT22;315;48.738;9.126;2023-08-12T05:17:35;20.20;99.90
666;DHT22;315;48.738;9.126;2023-08-12T05:20:01;20.30;99.90
666;DHT22;315;48.738;9.126;2023-08-12T05:22:26;20.40;99.90
666;DHT22;315;48.738;9.126;2023-08-12T05:24:52;20.50;99.90
666;DHT22;315;48.738;9.126;2023-08-12T05:27:17;20.60;99.90
666;DHT22;315;48.738;9.126;2023-08-12T05:29:43;20.70;99.90
666;DHT22;315;48.738;9.126;2023-08-12T05:32:08;20.80;99.90
666;DHT22;315;48.738;9.126;2023-08-12T05:34:34;20.90;99.90
666;DHT22;315;48.738;9.126;2023-08-12T05:36:59;21.00;99.90
666;DHT22;315;48.738;9.126;2023-08-12T05:39:25;21.00;99.90
666;DHT22;315;48.738;9.126;2023-08-12T05:41:51;21.10;99.90
666;DHT22;315;48.738;9.126;2023-08-12T05:44:17;21.00;99.90
666;DHT22;315;48.738;9.126;2023-08-12T05:46:43;21.00;99.90
666;DHT22;315;48.738;9.126;2023-08-12T05:49:08;21.10;99.90
666;DHT22;315;48.738;9.126;2023-08-12T05:51:34;21.20;99.90
666;DHT22;315;48.738;9.126;2023-08-12T05:53:59;21.30;99.90
666;DHT22;315;48.738;9.126;2023-08-12T05:56:25;21.40;99.90
666;DHT22;315;48.738;9.126;2023-08-12T05:58:50;21.40;99.90
666;DHT22;315;48.738;9.126;2023-08-12T06:01:16;21.40;99.90
666;DHT22;315;48.738;9.126;2023-08-12T06:03:42;21.30;99.90
666;DHT22;315;48.738;9.126;2023-08-12T06:06:08;21.10;99.90
666;DHT22;315;48.738;9.126;2023-08-12T06:08:33;20.90;99.90
666;DHT22;315;48.738;9.126;2023-08-12T06:10:59;20.90;99.90
666;DHT22;315;48.738;9.126;2023-08-12T06:13:24;21.00;99.90
666;DHT22;315;48.738;9.126;2023-08-12T06:15:50;21.10;99.90
666;DHT22;315;48.738;9.126;2023-08-12T06:18:15;21.30;99.90
666;DHT22;315;48.738;9.126;2023-08-12T06:20:41;21.50;99.90
666;DHT22;315;48.738;9.126;2023-08-12T06:23:06;21.70;99.90
666;DHT22;315;48.738;9.126;2023-08-12T06:25:32;21.70;99.90
666;DHT22;315;48.738;9.126;2023-08-12T06:27:57;21.50;99.90
666;DHT22;315;48.738;9.126;2023-08-12T06:30:24;21.40;99.90
666;DHT22;315;48.738;9.126;2023-08-12T06:32:49;21.40;99.90
666;DHT22;315;48.738;9.126;2023-08-12T06:35:15;21.50;99.90
666;DHT22;315;48.738;9.126;2023-08-12T06:37:40;21.60;99.90
666;DHT22;315;48.738;9.126;2023-08-12T06:40:07;21.80;99.90
666;DHT22;315;48.738;9.126;2023-08-12T06:42:33;22.10;99.90
666;DHT22;315;48.738;9.126;2023-08-12T06:44:59;22.30;99.90
666;DHT22;315;48.738;9.126;2023-08-12T06:47:25;22.70;99.90
666;DHT22;315;48.738;9.126;2023-08-12T06:49:53;23.20;99.90
666;DHT22;315;48.738;9.126;2023-08-12T06:52:18;23.80;99.90
666;DHT22;315;48.738;9.126;2023-08-12T06:54:44;24.40;99.90
666;DHT22;315;48.738;9.126;2023-08-12T06:57:09;24.90;99.90
666;DHT22;315;48.738;9.126;2023-08-12T06:59:37;25.10;99.90
666;DHT22;315;48.738;9.126;2023-08-12T07:02:02;24.90;99.90
666;DHT22;315;48.738;9.126;2023-08-12T07:04:28;24.70;99.90
666;DHT22;315;48.738;9.126;2023-08-12T07:06:53;24.70;99.90
666;DHT22;315;48.738;9.126;2023-08-12T07:09:19;24.90;99.90
666;DHT22;315;48.738;9.126;2023-08-12T07:11:45;25.00;99.90
666;DHT22;315;48.738;9.126;2023-08-12T07:14:10;25.30;99.90
666;DHT22;315;48.738;9.126;2023-08-12T07:16:36;25.70;99.90
666;DHT22;315;48.738;9.126;2023-08-12T07:19:01;25.90;99.90
666;DHT22;315;48.738;9.126;2023-08-12T07:21:27;26.00;99.90
666;DHT22;315;48.738;9.126;2023-08-12T07:23:52;26.40;99.90
666;DHT22;315;48.738;9.126;2023-08-12T07:26:18;26.90;99.90
666;DHT22;315;48.738;9.126;2023-08-12T07:28:43;27.30;99.90
666;DHT22;315;48.738;9.126;2023-08-12T07:31:09;27.40;99.90
666;DHT22;315;48.738;9.126;2023-08-12T07:33:35;27.60;99.90
666;DHT22;315;48.738;9.126;2023-08-12T07:36:01;27.80;99.90
666;DHT22;315;48.738;9.126;2023-08-12T07:38:27;28.00;99.90
666;DHT22;315;48.738;9.126;2023-08-12T07:40:52;28.50;99.90
666;DHT22;315;48.738;9.126;2023-08-12T07:43:18;28.70;99.90
666;DHT22;315;48.738;9.126;2023-08-12T07:45:43;29.10;99.90
666;DHT22;315;48.738;9.126;2023-08-12T07:48:09;29.40;99.90
666;DHT22;315;48.738;9.126;2023-08-12T07:50:35;29.80;99.90
666;DHT22;315;48.738;9.126;2023-08-12T07:53:00;30.20;99.90
666;DHT22;315;48.738;9.126;2023-08-12T07:55:27;30.50;99.90
666;DHT22;315;48.738;9.126;2023-08-12T07:57:52;30.80;99.90
666;DHT22;315;48.738;9.126;2023-08-12T08:00:18;31.10;99.90
666;DHT22;315;48.738;9.126;2023-08-12T08:02:44;31.20;99.90
666;DHT22;315;48.738;9.126;2023-08-12T08:05:10;31.40;99.90
666;DHT22;315;48.738;9.126;2023-08-12T08:07:35;31.90;99.90
666;DHT22;315;48.738;9.126;2023-08-12T08:10:01;32.60;98.30
666;DHT22;315;48.738;9.126;2023-08-12T08:12:26;32.90;95.30
666;DHT22;315;48.738;9.126;2023-08-12T08:14:52;32.80;94.60
666;DHT22;315;48.738;9.126;2023-08-12T08:17:17;32.80;94.60
666;DHT22;315;48.738;9.126;2023-08-12T08:19:43;32.90;93.10
666;DHT22;315;48.738;9.126;2023-08-12T08:22:08;32.90;92.30
666;DHT22;315;48.738;9.126;2023-08-12T08:24:34;32.30;92.40
666;DHT22;315;48.738;9.126;2023-08-12T08:26:59;31.90;92.60
666;DHT22;315;48.738;9.126;2023-08-12T08:29:25;31.60;92.80
666;DHT22;315;48.738;9.126;2023-08-12T08:31:51;31.80;92.90
666;DHT22;315;48.738;9.126;2023-08-12T08:34:16;32.00;92.40
666;DHT22;315;48.738;9.126;2023-08-12T08:36:42;32.60;90.60
666;DHT22;315;48.738;9.126;2023-08-12T08:39:08;32.60;88.50
666;DHT22;315;48.738;9.126;2023-08-12T08:41:37;32.90;88.70
666;DHT22;315;48.738;9.126;2023-08-12T08:44:08;32.60;88.20
666;DHT22;315;48.738;9.126;2023-08-12T08:46:34;31.90;87.40
666;DHT22;315;48.738;9.126;2023-08-12T08:49:00;31.50;89.20
666;DHT22;315;48.738;9.126;2023-08-12T08:51:27;31.60;90.00
666;DHT22;315;48.738;9.126;2023-08-12T08:53:54;31.90;89.20
666;DHT22;315;48.738;9.126;2023-08-12T08:56:21;32.30;88.60
666;DHT22;315;48.738;9.126;2023-08-12T08:58:47;32.90;83.90
666;DHT22;315;48.738;9.126;2023-08-12T09:01:13;33.20;81.00
666;DHT22;315;48.738;9.126;2023-08-12T09:03:41;32.70;78.90
666;DHT22;315;48.738;9.126;2023-08-12T09:06:08;32.20;79.70
666;DHT22;315;48.738;9.126;2023-08-12T09:08:34;31.80;79.40
666;DHT22;315;48.738;9.126;2023-08-12T09:11:02;31.70;80.00
666;DHT22;315;48.738;9.126;2023-08-12T09:13:28;32.10;79.60
666;DHT22;315;48.738;9.126;2023-08-12T09:15:54;32.60;77.20
666;DHT22;315;48.738;9.126;2023-08-12T09:18:20;32.80;75.10
666;DHT22;315;48.738;9.126;2023-08-12T09:20:50;32.90;73.60
666;DHT22;315;48.738;9.126;2023-08-12T09:23:16;32.20;74.90
666;DHT22;315;48.738;9.126;2023-08-12T09:25:43;32.20;75.40
666;DHT22;315;48.738;9.126;2023-08-12T09:28:12;32.40;74.60
666;DHT22;315;48.738;9.126;2023-08-12T09:30:38;32.70;74.20
666;DHT22;315;48.738;9.126;2023-08-12T09:33:05;33.20;74.20
666;DHT22;315;48.738;9.126;2023-08-12T09:35:37;32.70;72.10
666;DHT22;315;48.738;9.126;2023-08-12T09:38:04;32.10;73.70
666;DHT22;315;48.738;9.126;2023-08-12T09:40:31;31.90;74.00
666;DHT22;315;48.738;9.126;2023-08-12T09:42:57;32.70;73.70
666;DHT22;315;48.738;9.126;2023-08-12T09:45:24;33.60;71.50
666;DHT22;315;48.738;9.126;2023-08-12T09:47:50;34.30;70.50
666;DHT22;315;48.738;9.126;2023-08-12T09:50:16;34.20;67.30
666;DHT22;315;48.738;9.126;2023-08-12T09:52:41;33.20;69.30
666;DHT22;315;48.738;9.126;2023-08-12T09:55:08;32.40;71.70
666;DHT22;315;48.738;9.126;2023-08-12T09:57:36;31.50;75.10
666;DHT22;315;48.738;9.126;2023-08-12T10:00:05;31.00;78.40
666;DHT22;315;48.738;9.126;2023-08-12T10:02:38;30.80;79.70
666;DHT22;315;48.738;9.126;2023-08-12T10:05:04;30.70;83.00
666;DHT22;315;48.738;9.126;2023-08-12T10:07:30;30.70;83.80
666;DHT22;315;48.738;9.126;2023-08-12T10:09:55;30.80;85.80
666;DHT22;315;48.738;9.126;2023-08-12T10:12:21;30.90;86.70
666;DHT22;315;48.738;9.126;2023-08-12T10:14:47;30.90;85.60
666;DHT22;315;48.738;9.126;2023-08-12T10:17:14;31.00;86.70
666;DHT22;315;48.738;9.126;2023-08-12T10:19:44;31.00;84.20
666;DHT22;315;48.738;9.126;2023-08-12T10:22:10;31.10;84.60
666;DHT22;315;48.738;9.126;2023-08-12T10:24:36;31.30;83.80
666;DHT22;315;48.738;9.126;2023-08-12T10:27:03;31.70;83.30
666;DHT22;315;48.738;9.126;2023-08-12T10:29:29;31.80;81.90
666;DHT22;315;48.738;9.126;2023-08-12T10:31:56;31.80;82.80
666;DHT22;315;48.738;9.126;2023-08-12T10:34:23;32.40;80.60
666;DHT22;315;48.738;9.126;2023-08-12T10:37:02;32.50;78.30
666;DHT22;315;48.738;9.126;2023-08-12T10:39:28;32.40;78.70
666;DHT22;315;48.738;9.126;2023-08-12T10:41:55;32.70;79.60
666;DHT22;315;48.738;9.126;2023-08-12T10:44:21;32.60;78.60
666;DHT22;315;48.738;9.126;2023-08-12T10:46:50;32.70;79.00
666;DHT22;315;48.738;9.126;2023-08-12T10:49:19;32.30;78.50
666;DHT22;315;48.738;9.126;2023-08-12T10:51:54;32.40;80.00
666;DHT22;315;48.738;9.126;2023-08-12T10:54:23;33.00;77.10
666;DHT22;315;48.738;9.126;2023-08-12T10:57:04;33.20;76.70
666;DHT22;315;48.738;9.126;2023-08-12T11:02:31;34.80;71.70
666;DHT22;315;48.738;9.126;2023-08-12T11:05:08;34.70;68.70
666;DHT22;315;48.738;9.126;2023-08-12T11:10:18;33.70;68.00
666;DHT22;315;48.738;9.126;2023-08-12T11:12:58;33.00;69.10
666;DHT22;315;48.738;9.126;2023-08-12T11:15:44;32.60;70.90
666;DHT22;315;48.738;9.126;2023-08-12T11:18:20;33.30;70.30
666;DHT22;315;48.738;9.126;2023-08-12T11:20:47;35.20;65.50
666;DHT22;315;48.738;9.126;2023-08-12T11:23:13;36.40;62.50
666;DHT22;315;48.738;9.126;2023-08-12T11:25:42;36.90;59.70
666;DHT22;315;48.738;9.126;2023-08-12T11:28:08;35.80;60.30
666;DHT22;315;48.738;9.126;2023-08-12T11:30:34;35.90;61.00
666;DHT22;315;48.738;9.126;2023-08-12T11:33:01;36.30;60.70
666;DHT22;315;48.738;9.126;2023-08-12T11:35:27;37.00;59.70
666;DHT22;315;48.738;9.126;2023-08-12T11:37:54;36.40;59.60
666;DHT22;315;48.738;9.126;2023-08-12T11:40:21;36.40;60.30
666;DHT22;315;48.738;9.126;2023-08-12T11:42:48;36.80;58.40
666;DHT22;315;48.738;9.126;2023-08-12T11:45:19;37.10;57.80
666;DHT22;315;48.738;9.126;2023-08-12T11:47:45;37.50;57.30
666;DHT22;315;48.738;9.126;2023-08-12T11:50:12;38.00;56.20
666;DHT22;315;48.738;9.126;2023-08-12T11:52:39;38.30;54.70
666;DHT22;315;48.738;9.126;2023-08-12T11:55:05;38.70;54.50
666;DHT22;315;48.738;9.126;2023-08-12T11:57:32;38.90;53.70
666;DHT22;315;48.738;9.126;2023-08-12T12:00:07;38.70;53.00
666;DHT22;315;48.738;9.126;2023-08-12T12:02:41;38.00;53.30
666;DHT22;315;48.738;9.126;2023-08-12T12:05:10;37.50;53.60
666;DHT22;315;48.738;9.126;2023-08-12T12:07:36;36.40;54.30
666;DHT22;315;48.738;9.126;2023-08-12T12:10:02;34.90;57.10
666;DHT22;315;48.738;9.126;2023-08-12T12:12:28;33.90;59.10
666;DHT22;315;48.738;9.126;2023-08-12T12:14:55;32.70;63.20
666;DHT22;315;48.738;9.126;2023-08-12T12:17:22;31.90;69.20
666;DHT22;315;48.738;9.126;2023-08-12T12:19:55;31.40;85.60
666;DHT22;315;48.738;9.126;2023-08-12T12:22:29;30.50;99.90
666;DHT22;315;48.738;9.126;2023-08-12T12:24:58;29.00;99.90
666;DHT22;315;48.738;9.126;2023-08-12T12:27:24;27.50;99.90
666;DHT22;315;48.738;9.126;2023-08-12T12:29:50;26.40;99.90
666;DHT22;315;48.738;9.126;2023-08-12T12:32:18;25.90;99.90
666;DHT22;315;48.738;9.126;2023-08-12T12:34:44;25.50;99.90
666;DHT22;315;48.738;9.126;2023-08-12T12:37:10;25.20;99.90
666;DHT22;315;48.738;9.126;2023-08-12T12:39:35;25.10;99.90
666;DHT22;315;48.738;9.126;2023-08-12T12:42:01;25.00;99.90
666;DHT22;315;48.738;9.126;2023-08-12T12:44:27;24.90;99.90
666;DHT22;315;48.738;9.126;2023-08-12T12:46:52;25.00;99.90
666;DHT22;315;48.738;9.126;2023-08-12T12:49:18;24.90;99.90
666;DHT22;315;48.738;9.126;2023-08-12T12:51:44;24.90;99.90
666;DHT22;315;48.738;9.126;2023-08-12T12:54:10;24.80;99.90
666;DHT22;315;48.738;9.126;2023-08-12T12:56:35;24.60;99.90
666;DHT22;315;48.738;9.126;2023-08-12T12:59:01;24.60;99.90
666;DHT22;315;48.738;9.126;2023-08-12T13:01:26;24.50;99.90
666;DHT22;315;48.738;9.126;2023-08-12T13:03:52;24.40;99.90
666;DHT22;315;48.738;9.126;2023-08-12T13:06:17;24.30;99.90
666;DHT22;315;48.738;9.126;2023-08-12T13:08:43;24.40;99.90
666;DHT22;315;48.738;9.126;2023-08-12T13:11:08;24.50;99.90
666;DHT22;315;48.738;9.126;2023-08-12T13:13:34;24.50;99.90
666;DHT22;315;48.738;9.126;2023-08-12T13:15:59;24.50;99.90
666;DHT22;315;48.738;9.126;2023-08-12T13:18:25;24.40;99.90
666;DHT22;315;48.738;9.126;2023-08-12T13:20:50;24.40;99.90
666;DHT22;315;48.738;9.126;2023-08-12T13:23:16;24.50;99.90
666;DHT22;315;48.738;9.126;2023-08-12T13:25:41;24.40;99.90
666;DHT22;315;48.738;9.126;2023-08-12T13:28:07;24.30;99.90
666;DHT22;315;48.738;9.126;2023-08-12T13:30:33;24.40;99.90
666;DHT22;315;48.738;9.126;2023-08-12T13:32:59;24.40;99.90
666;DHT22;315;48.738;9.126;2023-08-12T13:35:24;24.40;99.90
666;DHT22;315;48.738;9.126;2023-08-12T13:37:50;24.50;99.90
666;DHT22;315;48.738;9.126;2023-08-12T13:40:19;24.80;99.90
666;DHT22;315;48.738;9.126;2023-08-12T13:42:44;25.20;99.90
666;DHT22;315;48.738;9.126;2023-08-12T13:45:11;25.70;99.90
666;DHT22;315;48.738;9.126;2023-08-12T13:47:37;26.60;99.90
666;DHT22;315;48.738;9.126;2023-08-12T13:50:02;27.50;99.90
666;DHT22;315;48.738;9.126;2023-08-12T13:52:28;28.60;99.90
666;DHT22;315;48.738;9.126;2023-08-12T13:54:53;29.50;99.90
666;DHT22;315;48.738;9.126;2023-08-12T13:57:19;30.40;99.90
666;DHT22;315;48.738;9.126;2023-08-12T13:59:44;30.80;99.90
666;DHT22;315;48.738;9.126;2023-08-12T14:02:11;30.60;99.90
666;DHT22;315;48.738;9.126;2023-08-12T14:04:36;30.90;99.90
666;DHT22;315;48.738;9.126;2023-08-12T14:07:06;30.80;99.90
666;DHT22;315;48.738;9.126;2023-08-12T14:09:31;30.40;99.90
666;DHT22;315;48.738;9.126;2023-08-12T14:11:57;30.10;99.90
666;DHT22;315;48.738;9.126;2023-08-12T14:14:24;30.10;99.90
666;DHT22;315;48.738;9.126;2023-08-12T14:16:50;29.90;99.90
666;DHT22;315;48.738;9.126;2023-08-12T14:19:15;29.90;99.90
666;DHT22;315;48.738;9.126;2023-08-12T14:21:42;29.60;99.90
666;DHT22;315;48.738;9.126;2023-08-12T14:24:08;29.10;99.90
666;DHT22;315;48.738;9.126;2023-08-12T14:26:34;28.70;99.90
666;DHT22;315;48.738;9.126;2023-08-12T14:29:00;28.30;99.90
666;DHT22;315;48.738;9.126;2023-08-12T14:31:25;28.00;99.90
666;DHT22;315;48.738;9.126;2023-08-12T14:33:51;27.90;99.90
666;DHT22;315;48.738;9.126;2023-08-12T14:36:16;27.90;99.90
666;DHT22;315;48.738;9.126;2023-08-12T14:38:42;28.00;99.90
666;DHT22;315;48.738;9.126;2023-08-12T14:41:07;28.00;99.90
666;DHT22;315;48.738;9.126;2023-08-12T14:43:33;28.00;99.90
666;DHT22;315;48.738;9.126;2023-08-12T14:45:58;28.00;99.90
666;DHT22;315;48.738;9.126;2023-08-12T14:48:24;28.10;99.90
666;DHT22;315;48.738;9.126;2023-08-12T14:50:50;28.20;99.90
666;DHT22;315;48.738;9.126;2023-08-12T14:53:15;28.10;99.90
666;DHT22;315;48.738;9.126;2023-08-12T14:55:41;28.10;99.90
666;DHT22;315;48.738;9.126;2023-08-12T14:58:06;28.00;99.90
666;DHT22;315;48.738;9.126;2023-08-12T15:00:32;27.90;99.90
666;DHT22;315;48.738;9.126;2023-08-12T15:02:59;27.90;99.90
666;DHT22;315;48.738;9.126;2023-08-12T15:05:24;27.90;99.90
666;DHT22;315;48.738;9.126;2023-08-12T15:07:50;27.90;99.90
666;DHT22;315;48.738;9.126;2023-08-12T15:10:15;27.90;99.90
666;DHT22;315;48.738;9.126;2023-08-12T15:12:41;27.90;99.90
666;DHT22;315;48.738;9.126;2023-08-12T15:15:06;27.80;99.90
666;DHT22;315;48.738;9.126;2023-08-12T15:17:32;27.90;99.90
666;DHT22;315;48.738;9.126;2023-08-12T15:19:58;28.00;99.90
666;DHT22;315;48.738;9.126;2023-08-12T15:22:23;27.90;99.90
666;DHT22;315;48.738;9.126;2023-08-12T15:24:49;27.80;99.90
666;DHT22;315;48.738;9.126;2023-08-12T15:27:14;27.70;99.90
666;DHT22;315;48.738;9.126;2023-08-12T15:29:40;27.60;99.90
666;DHT22;315;48.738;9.126;2023-08-12T15:32:05;27.50;99.90
666;DHT22;315;48.738;9.126;2023-08-12T15:34:31;27.40;99.90
666;DHT22;315;48.738;9.126;2023-08-12T15:36:56;27.20;99.90
666;DHT22;315;48.738;9.126;2023-08-12T15:39:22;27.00;99.90
666;DHT22;315;48.738;9.126;2023-08-12T15:41:47;26.90;99.90
666;DHT22;315;48.738;9.126;2023-08-12T15:44:14;26.80;99.90
666;DHT22;315;48.738;9.126;2023-08-12T15:46:40;26.80;99.90
666;DHT22;315;48.738;9.126;2023-08-12T15:49:06;26.80;99.90
666;DHT22;315;48.738;9.126;2023-08-12T15:51:36;26.80;99.90
666;DHT22;315;48.738;9.126;2023-08-12T15:54:01;26.70;99.90
666;DHT22;315;48.738;9.126;2023-08-12T15:56:27;26.80;99.90
666;DHT22;315;48.738;9.126;2023-08-12T15:58:53;26.80;99.90
666;DHT22;315;48.738;9.126;2023-08-12T16:01:18;26.70;99.90
666;DHT22;315;48.738;9.126;2023-08-12T16:03:46;26.50;99.90
666;DHT22;315;48.738;9.126;2023-08-12T16:06:12;26.40;99.90
666;DHT22;315;48.738;9.126;2023-08-12T16:08:38;26.30;99.90
666;DHT22;315;48.738;9.126;2023-08-12T16:11:04;26.30;99.90
666;DHT22;315;48.738;9.126;2023-08-12T16:13:30;26.30;99.90
666;DHT22;315;48.738;9.126;2023-08-12T16:15:58;26.10;99.90
666;DHT22;315;48.738;9.126;2023-08-12T16:18:24;25.80;99.90
666;DHT22;315;48.738;9.126;2023-08-12T16:20:50;25.40;99.90
666;DHT22;315;48.738;9.126;2023-08-12T16:23:16;25.00;99.90
666;DHT22;315;48.738;9.126;2023-08-12T16:25:41;24.60;99.90
666;DHT22;315;48.738;9.126;2023-08-12T16:28:07;24.40;99.90
666;DHT22;315;48.738;9.126;2023-08-12T16:30:32;24.20;99.90
666;DHT22;315;48.738;9.126;2023-08-12T16:32:58;24.00;99.90